Time;durP1;ratioP1;P1;durP2;ratioP2;P2;SDS_P1;SDS_P2;PMS_P1;PMS_P2;Temp;Humidity;BMP_temperature;BMP_pressure;BME280_temperature;BME280_humidity;BME280_pressure;Samples;Min_cycle;Max_cycle;Signal;HPM_P1;HPM_P2
2021/05/15 00:00:39;;;;;;;1.70;1.00;;;;;;;13.65;62.62;95072.81;5012823;28;20241;-86
2021/05/15 00:03:05;;;;;;;1.13;1.00;;;;;;;13.60;62.49;95070.06;5011673;28;20195;-86
2021/05/15 00:05:32;;;;;;;1.27;1.00;;;;;;;13.62;62.58;95071.44;5012300;28;20230;-86
2021/05/15 00:07:59;;;;;;;1.20;1.10;;;;;;;13.52;63.26;95065.91;5011957;28;20592;-86
2021/05/15 00:10:26;;;;;;;1.00;1.00;;;;;;;13.43;62.96;95070.53;5011662;28;20231;-86
2021/05/15 00:12:52;;;;;;;1.87;1.00;;;;;;;13.32;63.87;95076.34;5011232;28;20671;-86
2021/05/15 00:15:18;;;;;;;1.10;0.80;;;;;;;13.29;64.42;95071.59;5012171;28;20234;-84
2021/05/15 00:17:45;;;;;;;1.00;0.97;;;;;;;13.33;64.22;95067.59;5011448;28;20260;-86
2021/05/15 00:20:15;;;;;;;1.03;0.93;;;;;;;13.34;64.29;95065.81;5012048;28;20207;-86
2021/05/15 00:22:41;;;;;;;1.40;1.00;;;;;;;13.36;64.45;95068.97;5012600;28;20195;-86
2021/05/15 00:25:10;;;;;;;1.20;1.10;;;;;;;13.42;64.16;95068.97;5014111;28;20261;-86
2021/05/15 00:27:36;;;;;;;1.00;1.00;;;;;;;13.56;63.87;95058.53;5015056;28;20221;-85
2021/05/15 00:30:04;;;;;;;1.43;0.93;;;;;;;13.61;63.62;95064.69;5015849;28;20211;-86
2021/05/15 00:32:30;;;;;;;1.40;1.30;;;;;;;13.68;63.45;95065.41;5013967;28;20191;-86
2021/05/15 00:34:56;;;;;;;3.23;1.87;;;;;;;13.69;63.23;95064.41;5015409;28;20301;-85
2021/05/15 00:37:22;;;;;;;3.03;1.10;;;;;;;13.60;64.16;95063.09;5014958;28;20199;-86
2021/05/15 00:39:48;;;;;;;1.00;1.00;;;;;;;13.66;63.37;95067.41;5014966;28;20223;-86
2021/05/15 00:42:14;;;;;;;1.83;1.00;;;;;;;13.63;63.70;95070.44;5014703;28;20198;-85
2021/05/15 00:44:44;;;;;;;1.13;1.03;;;;;;;13.61;63.81;95066.47;5016108;28;20207;-86
2021/05/15 00:47:15;;;;;;;1.77;1.13;;;;;;;13.63;63.62;95060.09;5015080;28;20226;-85
2021/05/15 00:49:42;;;;;;;1.20;1.10;;;;;;;13.60;64.03;95062.28;5015015;28;20223;-86
2021/05/15 00:52:09;;;;;;;2.03;1.10;;;;;;;13.55;64.29;95065.50;5014253;28;20219;-85
2021/05/15 00:54:37;;;;;;;3.83;1.30;;;;;;;13.62;63.66;95062.88;5015010;28;20195;-86
2021/05/15 00:57:04;;;;;;;1.20;1.10;;;;;;;13.64;63.83;95063.47;5015090;28;20206;-86
2021/05/15 00:59:30;;;;;;;1.33;1.20;;;;;;;13.71;63.55;95059.81;5014895;28;20485;-86
2021/05/15 01:02:16;;;;;;;1.50;1.20;;;;;;;13.69;63.36;95056.66;5015225;28;20695;-86
2021/05/15 01:04:42;;;;;;;1.20;1.03;;;;;;;13.71;63.26;95054.66;4994965;28;20675;-86
2021/05/15 01:07:10;;;;;;;1.50;1.10;;;;;;;13.70;63.73;95060.81;5010659;28;20203;-84
2021/05/15 01:09:36;;;;;;;1.80;1.20;;;;;;;13.66;64.31;95051.13;5014151;28;20314;-85
2021/05/15 01:12:04;;;;;;;2.40;1.10;;;;;;;13.62;64.63;95057.72;5014643;28;20268;-86
2021/05/15 01:14:30;;;;;;;2.37;1.10;;;;;;;13.60;64.96;95059.72;5014785;28;20195;-86
2021/05/15 01:16:56;;;;;;;1.33;1.00;;;;;;;13.61;65.09;95063.88;5014856;28;20206;-86
2021/05/15 01:19:22;;;;;;;1.53;1.10;;;;;;;13.59;66.11;95060.72;5014597;28;20317;-86
2021/05/15 01:21:54;;;;;;;0.90;0.90;;;;;;;13.52;65.63;95055.56;5014290;28;20445;-86
2021/05/15 01:24:20;;;;;;;1.83;0.80;;;;;;;13.45;65.94;95060.00;5014298;28;20207;-84
2021/05/15 01:26:47;;;;;;;1.10;1.00;;;;;;;13.32;66.47;95057.44;4995321;28;20220;-86
2021/05/15 01:29:13;;;;;;;2.83;1.10;;;;;;;13.18;67.73;95067.06;4994874;28;20219;-86
2021/05/15 01:31:39;;;;;;;1.20;1.10;;;;;;;13.28;67.52;95071.78;4995014;28;20231;-85
2021/05/15 01:34:06;;;;;;;1.10;1.00;;;;;;;13.26;67.33;95058.28;4994531;28;20253;-86
2021/05/15 01:36:39;;;;;;;1.90;0.97;;;;;;;13.31;67.92;95058.44;4994296;28;20207;-86
2021/05/15 01:39:07;;;;;;;1.00;0.90;;;;;;;13.20;68.97;95054.72;4994458;28;20226;-86
2021/05/15 01:41:33;;;;;;;1.10;0.93;;;;;;;13.20;69.38;95059.91;4995211;28;20199;-86
2021/05/15 01:43:59;;;;;;;1.20;0.90;;;;;;;13.13;69.64;95059.88;4994642;28;20230;-86
2021/05/15 01:46:25;;;;;;;0.90;0.90;;;;;;;12.98;71.43;95064.53;4994807;28;20211;-87
2021/05/15 01:48:51;;;;;;;0.80;0.80;;;;;;;12.87;72.86;95066.94;4994052;28;20921;-86
2021/05/15 01:51:17;;;;;;;0.90;0.90;;;;;;;12.99;71.89;95062.72;4994912;28;20219;-86
2021/05/15 01:53:46;;;;;;;1.10;1.10;;;;;;;13.03;72.34;95063.91;4994253;28;20211;-86
2021/05/15 01:56:15;;;;;;;1.30;0.97;;;;;;;12.99;73.64;95066.09;4994687;28;20210;-86
2021/05/15 01:58:41;;;;;;;1.17;1.00;;;;;;;13.01;73.99;95060.75;4994641;28;20227;-85
2021/05/15 02:01:08;;;;;;;1.40;0.90;;;;;;;13.01;74.01;95060.75;4994297;28;20199;-85
2021/05/15 02:03:36;;;;;;;1.50;1.10;;;;;;;13.05;74.21;95060.13;4992947;28;20258;-85
2021/05/15 02:06:03;;;;;;;1.10;1.00;;;;;;;13.04;74.17;95063.72;4993428;28;20199;-85
2021/05/15 02:08:29;;;;;;;1.47;0.90;;;;;;;13.05;73.14;95057.56;4993738;28;20246;-86
2021/05/15 02:10:56;;;;;;;1.57;1.00;;;;;;;13.03;73.23;95061.34;4993280;28;20246;-84
2021/05/15 02:13:26;;;;;;;1.10;1.00;;;;;;;13.04;73.50;95063.72;4993062;28;20835;-85
2021/05/15 02:15:53;;;;;;;0.83;0.83;;;;;;;13.07;72.64;95063.31;4994019;28;20196;-86
2021/05/15 02:18:19;;;;;;;0.90;0.90;;;;;;;13.07;72.95;95054.75;4992757;28;20698;-85
2021/05/15 02:20:45;;;;;;;1.00;0.90;;;;;;;13.08;72.44;95051.94;4992889;28;20282;-86
2021/05/15 02:23:13;;;;;;;1.20;1.00;;;;;;;13.09;72.79;95053.53;4992659;28;20222;-85
2021/05/15 02:25:39;;;;;;;1.83;1.00;;;;;;;13.07;73.22;95054.75;4992540;28;20235;-86
2021/05/15 02:28:05;;;;;;;1.73;1.00;;;;;;;13.06;73.53;95058.34;4992617;28;20215;-86
2021/05/15 02:30:33;;;;;;;1.10;1.00;;;;;;;13.06;73.69;95056.56;4992451;28;20602;-86
2021/05/15 02:32:59;;;;;;;2.70;0.90;;;;;;;13.07;73.47;95060.72;4995197;28;20203;-86
2021/05/15 02:35:26;;;;;;;2.30;1.10;;;;;;;13.10;73.60;95055.13;4993002;28;20195;-84
2021/05/15 02:37:52;;;;;;;1.03;0.93;;;;;;;13.09;74.25;95050.16;4992631;28;20223;-84
2021/05/15 02:40:21;;;;;;;0.80;0.80;;;;;;;13.10;73.46;95049.94;4992604;28;20208;-85
2021/05/15 02:42:49;;;;;;;2.60;1.00;;;;;;;13.12;73.36;95050.53;4992000;28;20234;-84
2021/05/15 02:45:17;;;;;;;1.13;1.00;;;;;;;13.14;73.39;95055.50;4992302;28;20654;-85
2021/05/15 02:47:44;;;;;;;0.80;0.80;;;;;;;13.11;73.77;95056.72;4992293;28;20570;-86
2021/05/15 02:50:12;;;;;;;1.37;0.90;;;;;;;13.12;73.11;95053.13;4992333;28;20845;-84
2021/05/15 02:52:39;;;;;;;1.03;1.00;;;;;;;13.05;73.83;95052.38;4992392;28;20199;-86
2021/05/15 02:55:07;;;;;;;1.07;0.80;;;;;;;13.00;73.77;95053.97;4992875;28;20219;-86
2021/05/15 02:57:33;;;;;;;1.00;0.90;;;;;;;12.96;74.48;95053.59;4992550;28;20211;-86
2021/05/15 02:59:59;;;;;;;1.30;1.10;;;;;;;12.98;73.74;95053.38;4992525;28;20203;-84
2021/05/15 03:02:25;;;;;;;2.10;0.80;;;;;;;12.95;74.72;95058.97;4991370;28;20676;-84
2021/05/15 03:04:52;;;;;;;0.83;0.83;;;;;;;12.97;74.35;95051.81;4992190;28;20690;-83
2021/05/15 03:07:18;;;;;;;1.63;0.80;;;;;;;12.91;74.11;95050.81;4992220;28;20199;-84
2021/05/15 03:09:45;;;;;;;1.30;1.00;;;;;;;12.93;74.31;95055.78;4991712;28;20246;-85
2021/05/15 03:12:12;;;;;;;1.63;0.90;;;;;;;12.92;73.76;95042.06;4990998;28;20230;-82
2021/05/15 03:14:39;;;;;;;1.00;0.80;;;;;;;12.91;74.22;95053.41;4991798;28;20199;-83
2021/05/15 03:17:05;;;;;;;0.90;0.90;;;;;;;12.84;74.84;95050.06;4991889;28;20199;-83
2021/05/15 03:19:31;;;;;;;0.80;0.80;;;;;;;12.93;75.08;95053.19;4991718;28;20277;-84
2021/05/15 03:21:58;;;;;;;0.90;0.90;;;;;;;12.95;74.47;95054.59;4991640;28;20207;-86
2021/05/15 03:24:24;;;;;;;1.57;1.20;;;;;;;12.83;75.57;95053.63;4991440;28;20222;-84
2021/05/15 03:26:50;;;;;;;0.90;0.90;;;;;;;12.89;75.17;95052.84;4991474;28;20294;-84
2021/05/15 03:29:18;;;;;;;1.13;0.90;;;;;;;12.98;74.38;95054.19;4991435;28;20219;-85
2021/05/15 03:31:45;;;;;;;2.03;1.07;;;;;;;13.04;74.14;95057.75;4991953;28;20227;-86
2021/05/15 03:34:11;;;;;;;1.43;1.00;;;;;;;13.06;73.73;95053.19;4991851;28;20663;-84
2021/05/15 03:36:37;;;;;;;2.50;0.90;;;;;;;13.08;73.35;95058.94;4992138;28;20226;-84
2021/05/15 03:39:04;;;;;;;0.80;0.80;;;;;;;13.09;73.50;95052.75;4992667;28;20215;-86
2021/05/15 03:41:30;;;;;;;1.10;0.80;;;;;;;13.14;73.55;95051.13;4992277;28;20210;-84
2021/05/15 03:43:56;;;;;;;0.93;0.90;;;;;;;13.01;73.42;95043.44;4992622;28;20250;-84
2021/05/15 03:46:22;;;;;;;1.83;1.00;;;;;;;12.97;72.86;95044.03;4995286;28;20772;-86
2021/05/15 03:48:48;;;;;;;0.90;0.90;;;;;;;13.01;73.47;95046.03;5002152;28;20223;-85
2021/05/15 03:51:15;;;;;;;1.10;0.90;;;;;;;13.01;72.71;95047.81;5003463;28;20255;-86
2021/05/15 03:53:41;;;;;;;0.80;0.80;;;;;;;13.00;73.46;95046.22;5003825;28;20214;-86
2021/05/15 03:56:08;;;;;;;0.93;0.93;;;;;;;13.03;72.36;95054.38;5003338;28;20208;-86
2021/05/15 03:58:34;;;;;;;1.03;0.80;;;;;;;13.06;72.56;95056.56;5004090;28;20231;-85
2021/05/15 04:01:00;;;;;;;0.83;0.83;;;;;;;13.06;72.25;95048.00;5006547;28;20219;-86
2021/05/15 04:03:26;;;;;;;1.83;1.10;;;;;;;13.07;72.59;95044.41;5006645;28;20826;-86
2021/05/15 04:05:52;;;;;;;1.20;1.07;;;;;;;13.05;73.12;95049.78;5007347;28;20636;-85
2021/05/15 04:08:18;;;;;;;1.10;1.00;;;;;;;13.00;73.18;95051.41;5007161;28;20310;-86
2021/05/15 04:10:44;;;;;;;1.33;1.03;;;;;;;13.01;72.85;95061.53;5005874;28;20221;-86
2021/05/15 04:13:19;;;;;;;1.07;0.87;;;;;;;12.96;73.28;95052.78;4998056;28;20235;-86
2021/05/15 04:15:50;;;;;;;0.87;0.87;;;;;;;12.90;73.61;95054.41;4997462;28;20195;-86
2021/05/15 04:18:16;;;;;;;0.80;0.80;;;;;;;12.97;73.36;95055.19;4997270;28;20282;-86
2021/05/15 04:20:44;;;;;;;2.30;0.90;;;;;;;12.96;73.14;95061.34;4996788;28;20196;-86
2021/05/15 04:23:11;;;;;;;1.90;0.90;;;;;;;12.97;72.54;95059.56;4996881;28;20200;-86
2021/05/15 04:25:37;;;;;;;0.70;0.70;;;;;;;13.00;73.29;95065.13;4996210;28;20247;-86
2021/05/15 04:28:04;;;;;;;1.20;0.90;;;;;;;13.02;72.61;95057.94;4997016;28;20220;-86
2021/05/15 04:30:32;;;;;;;1.43;1.07;;;;;;;13.03;72.86;95062.13;4996762;28;20200;-86
2021/05/15 04:33:00;;;;;;;1.50;0.80;;;;;;;13.07;72.64;95054.75;4996747;28;20230;-86
2021/05/15 04:35:26;;;;;;;1.20;0.90;;;;;;;13.07;72.20;95055.56;4996603;28;20206;-86
2021/05/15 04:37:52;;;;;;;1.17;1.10;;;;;;;13.03;73.43;95062.13;4996719;28;20219;-86
2021/05/15 04:40:18;;;;;;;0.93;0.90;;;;;;;12.98;73.39;95059.34;4996392;28;20200;-86
2021/05/15 04:42:45;;;;;;;1.07;0.83;;;;;;;12.98;73.36;95064.53;4997067;28;20200;-86
2021/05/15 04:45:12;;;;;;;0.87;0.87;;;;;;;13.00;72.89;95066.91;4997151;28;20195;-86
2021/05/15 04:47:40;;;;;;;1.30;1.20;;;;;;;13.00;72.98;95065.13;4996938;28;20231;-86
2021/05/15 04:50:09;;;;;;;1.47;1.00;;;;;;;12.91;72.74;95070.69;4996776;28;20203;-86
2021/05/15 04:52:35;;;;;;;0.80;0.80;;;;;;;12.97;72.38;95075.84;4996075;28;20227;-86
2021/05/15 04:55:02;;;;;;;1.13;0.90;;;;;;;13.03;72.54;95072.47;4996311;28;20663;-86
2021/05/15 04:57:28;;;;;;;0.90;0.90;;;;;;;12.99;72.11;95070.47;4995856;28;20238;-86
2021/05/15 04:59:54;;;;;;;0.80;0.80;;;;;;;13.00;72.31;95065.13;4996666;28;20227;-86
2021/05/15 05:02:20;;;;;;;1.00;0.90;;;;;;;13.04;72.75;95068.09;4996520;28;20254;-86
2021/05/15 05:04:47;;;;;;;2.50;0.90;;;;;;;13.06;72.52;95063.50;4996175;28;20204;-85
2021/05/15 05:07:12;;;;;;;1.10;1.00;;;;;;;13.05;72.60;95062.72;4995515;28;20203;-85
2021/05/15 05:09:38;;;;;;;1.40;1.30;;;;;;;13.04;72.57;95061.13;4995245;28;20321;-86
2021/05/15 05:12:05;;;;;;;4.43;3.70;;;;;;;13.07;72.45;95068.47;4987922;28;20231;-86
2021/05/15 05:14:31;;;;;;;1.77;1.20;;;;;;;13.08;71.91;95066.69;4988281;28;20786;-86
2021/05/15 05:16:57;;;;;;;1.30;1.20;;;;;;;13.11;71.76;95066.25;4994760;28;20214;-86
2021/05/15 05:19:23;;;;;;;1.13;0.90;;;;;;;13.09;72.08;95063.06;4995189;28;20223;-86
2021/05/15 05:21:51;;;;;;;1.10;1.00;;;;;;;13.05;72.77;95065.31;4995999;28;20192;-86
2021/05/15 05:24:17;;;;;;;1.07;0.97;;;;;;;13.04;72.60;95058.53;4995671;28;20202;-86
2021/05/15 05:26:43;;;;;;;0.93;0.87;;;;;;;13.03;71.85;95064.72;4995637;28;20235;-86
2021/05/15 05:29:09;;;;;;;1.40;0.90;;;;;;;13.11;71.78;95066.25;4996019;28;20215;-86
2021/05/15 05:31:36;;;;;;;1.10;1.00;;;;;;;13.18;71.69;95058.50;4998968;28;20219;-86
2021/05/15 05:34:03;;;;;;;1.00;0.90;;;;;;;13.20;71.98;95059.91;5015189;28;20202;-86
2021/05/15 05:36:29;;;;;;;1.63;0.90;;;;;;;13.24;71.88;95061.09;5009928;28;20199;-86
2021/05/15 05:38:56;;;;;;;0.90;0.90;;;;;;;13.26;72.04;95059.09;4978196;28;20220;-86
2021/05/15 05:41:24;;;;;;;1.10;1.00;;;;;;;13.26;72.17;95053.91;4978651;28;20664;-85
2021/05/15 05:43:50;;;;;;;1.23;0.80;;;;;;;13.20;71.34;95056.53;4994659;28;20210;-86
2021/05/15 05:46:16;;;;;;;1.50;0.80;;;;;;;13.21;71.34;95058.91;4995061;28;20254;-86
2021/05/15 05:48:42;;;;;;;0.80;0.80;;;;;;;13.26;71.54;95063.47;4995351;28;20299;-86
2021/05/15 05:51:08;;;;;;;1.17;0.83;;;;;;;13.28;70.72;95054.47;4994695;28;20223;-86
2021/05/15 05:53:34;;;;;;;1.43;0.97;;;;;;;13.29;70.89;95044.94;4995414;28;20226;-86
2021/05/15 05:56:02;;;;;;;0.83;0.83;;;;;;;13.29;71.35;95056.06;4994734;28;20334;-86
2021/05/15 05:58:28;;;;;;;36.80;29.03;;;;;;;13.32;70.67;95053.06;4994279;28;20226;-86
2021/05/15 06:00:54;;;;;;;4.73;4.17;;;;;;;13.36;71.06;95050.88;4995197;28;20187;-86
2021/05/15 06:03:20;;;;;;;1.50;1.40;;;;;;;13.44;70.05;95058.41;4995461;28;20578;-86
2021/05/15 06:05:46;;;;;;;1.23;0.90;;;;;;;13.41;69.59;95057.03;4987569;28;20196;-86
2021/05/15 06:08:12;;;;;;;1.00;0.90;;;;;;;13.48;70.23;95056.97;4994594;28;20227;-86
2021/05/15 06:10:39;;;;;;;1.10;1.00;;;;;;;13.54;70.42;95055.34;4995596;28;20206;-86
2021/05/15 06:13:08;;;;;;;2.17;1.00;;;;;;;13.55;69.71;95052.56;4994607;28;20347;-86
2021/05/15 06:15:34;;;;;;;1.37;0.90;;;;;;;13.51;69.68;95056.56;4994901;28;20203;-86
2021/05/15 06:18:00;;;;;;;1.10;0.80;;;;;;;13.56;69.24;95059.31;4993870;28;20207;-87
2021/05/15 06:20:27;;;;;;;2.70;1.00;;;;;;;13.65;69.29;95059.88;4994319;28;20259;-84
2021/05/15 06:22:53;;;;;;;0.97;0.90;;;;;;;13.68;69.69;95054.28;4993617;28;20192;-84
2021/05/15 06:25:19;;;;;;;0.93;0.87;;;;;;;13.72;68.76;95056.25;4988214;28;20263;-84
2021/05/15 06:27:46;;;;;;;4.17;3.80;;;;;;;13.75;67.71;95049.88;4992273;28;20211;-84
2021/05/15 06:30:14;;;;;;;4.63;1.80;;;;;;;13.79;68.67;95054.41;4991935;28;20241;-83
2021/05/15 06:32:40;;;;;;;2.03;1.40;;;;;;;13.78;66.57;95055.41;5005033;28;20215;-82
2021/05/15 06:35:07;;;;;;;1.20;0.80;;;;;;;13.72;65.23;95053.66;5012308;28;20206;-81
2021/05/15 06:37:33;;;;;;;1.00;0.80;;;;;;;13.83;66.35;95055.59;5012500;28;20213;-82
2021/05/15 06:39:59;;;;;;;0.73;0.70;;;;;;;13.79;63.84;95053.63;5011526;28;20203;-84
2021/05/15 06:42:25;;;;;;;1.00;0.77;;;;;;;13.88;64.28;95052.34;4995627;28;20195;-85
2021/05/15 06:44:51;;;;;;;1.87;1.00;;;;;;;13.90;64.01;95046.97;4991804;28;20223;-82
2021/05/15 06:47:18;;;;;;;0.73;0.70;;;;;;;13.96;64.47;95043.56;4988495;28;20208;-83
2021/05/15 06:49:44;;;;;;;0.80;0.70;;;;;;;13.95;64.13;95045.34;4992627;28;20560;-82
2021/05/15 06:52:10;;;;;;;0.90;0.80;;;;;;;13.97;63.85;95051.09;4992298;28;20250;-82
2021/05/15 06:54:37;;;;;;;1.47;0.80;;;;;;;14.10;64.28;95042.44;4991621;28;20282;-82
2021/05/15 06:57:03;;;;;;;0.80;0.80;;;;;;;13.99;64.05;95053.50;4992556;28;20200;-83
2021/05/15 06:59:29;;;;;;;1.10;0.90;;;;;;;13.96;64.12;95049.53;4992988;28;20228;-86
2021/05/15 07:01:55;;;;;;;1.43;0.80;;;;;;;14.01;64.57;95041.13;4993408;28;20383;-84
2021/05/15 07:04:23;;;;;;;12.63;11.33;;;;;;;14.23;64.45;95042.34;4993515;28;20718;-83
2021/05/15 07:06:49;;;;;;;2.23;1.80;;;;;;;14.37;63.75;95038.63;4993871;28;20935;-81
2021/05/15 07:09:15;;;;;;;0.80;0.80;;;;;;;14.46;61.75;95036.56;4990623;28;20287;-82
2021/05/15 07:11:41;;;;;;;0.80;0.80;;;;;;;14.54;60.90;95035.53;4992364;28;20281;-85
2021/05/15 07:14:07;;;;;;;1.40;0.70;;;;;;;14.60;61.51;95035.47;4992516;28;20207;-84
2021/05/15 07:16:33;;;;;;;0.97;0.80;;;;;;;14.66;61.42;95038.97;4997158;28;20311;-86
2021/05/15 07:18:59;;;;;;;1.43;0.90;;;;;;;14.59;59.91;95025.31;5000245;28;20307;-83
2021/05/15 07:21:26;;;;;;;0.93;0.80;;;;;;;14.57;60.01;95028.13;4997594;28;20879;-86
2021/05/15 07:23:52;;;;;;;1.70;0.80;;;;;;;14.67;61.04;95017.25;4984734;28;20212;-85
2021/05/15 07:26:19;;;;;;;0.90;0.80;;;;;;;14.75;60.07;95028.13;4976900;28;20231;-85
2021/05/15 07:28:45;;;;;;;1.43;0.93;;;;;;;14.68;60.38;95021.41;4992119;28;20409;-88
2021/05/15 07:31:11;;;;;;;0.80;0.80;;;;;;;14.56;58.77;95018.75;4992675;28;20227;-86
2021/05/15 07:33:37;;;;;;;0.60;0.60;;;;;;;14.71;59.72;95021.78;4993889;28;20226;-84
2021/05/15 07:36:04;;;;;;;0.93;0.80;;;;;;;14.82;59.84;95017.66;4996447;28;20782;-82
2021/05/15 07:38:30;;;;;;;1.33;0.80;;;;;;;14.90;59.08;95019.19;4995553;28;20223;-84
2021/05/15 07:40:58;;;;;;;0.70;0.70;;;;;;;14.66;57.49;95011.28;4997148;28;20207;-83
2021/05/15 07:43:52;;;;;;;1.50;0.70;;;;;;;14.64;57.18;95015.88;4997324;28;20199;-83
2021/05/15 07:46:18;;;;;;;1.43;0.80;;;;;;;14.69;55.92;95018.63;4997952;28;20195;-80
2021/05/15 07:48:50;;;;;;;1.37;0.90;;;;;;;14.73;55.15;95012.00;4999079;28;20223;-82
2021/05/15 07:51:21;;;;;;;0.90;0.90;;;;;;;14.80;54.88;95015.31;4998638;28;20223;-81
2021/05/15 07:53:52;;;;;;;0.93;0.80;;;;;;;14.97;55.23;95004.38;4996672;28;20254;-83
2021/05/15 07:56:19;;;;;;;0.87;0.80;;;;;;;14.96;54.77;95006.16;4996719;28;20222;-86
2021/05/15 07:58:48;;;;;;;0.77;0.77;;;;;;;15.08;55.28;95009.59;4998361;28;20235;-86
2021/05/15 08:01:14;;;;;;;1.17;0.90;;;;;;;15.12;54.83;95002.19;4994569;28;20253;-85
2021/05/15 08:03:40;;;;;;;1.83;0.70;;;;;;;15.30;54.53;94998.75;5000029;28;20199;-82
2021/05/15 08:06:09;;;;;;;1.00;0.73;;;;;;;15.57;54.61;94994.03;4998142;28;20205;-88
2021/05/15 08:08:38;;;;;;;0.83;0.80;;;;;;;15.42;49.90;94990.00;4999791;28;20219;-84
2021/05/15 08:11:10;;;;;;;2.67;0.70;;;;;;;15.59;51.04;94997.22;5000697;28;20643;-86
2021/05/15 08:13:40;;;;;;;0.80;0.80;;;;;;;15.69;50.41;94987.06;4999162;28;20203;-84
2021/05/15 08:16:08;;;;;;;1.77;0.77;;;;;;;15.76;50.13;94990.38;4998639;28;20211;-86
2021/05/15 08:18:34;;;;;;;0.70;0.70;;;;;;;15.80;48.31;94992.28;4998513;28;20230;-84
2021/05/15 08:21:00;;;;;;;1.93;1.00;;;;;;;15.96;49.70;94980.47;4998689;28;20200;-85
2021/05/15 08:23:29;;;;;;;1.63;0.90;;;;;;;16.09;48.53;94969.84;4998952;28;20203;-85
2021/05/15 08:25:57;;;;;;;2.50;1.93;;;;;;;16.14;49.12;94966.59;4997506;28;20235;-85
2021/05/15 08:28:25;;;;;;;3.40;3.10;;;;;;;15.91;48.11;94967.34;4996913;28;20311;-86
2021/05/15 08:30:51;;;;;;;0.90;0.90;;;;;;;15.92;49.00;94974.13;4996207;28;20811;-86
2021/05/15 08:33:20;;;;;;;0.80;0.80;;;;;;;15.98;49.73;94968.03;4997610;28;20204;-86
2021/05/15 08:35:52;;;;;;;0.60;0.60;;;;;;;15.95;47.91;94975.50;4998073;28;20207;-86
2021/05/15 08:38:18;;;;;;;0.88;0.82;;;;;;;16.10;48.97;94965.44;4996701;28;20223;-84
2021/05/15 08:40:44;;;;;;;1.13;0.80;;;;;;;16.01;48.97;94970.16;4996687;28;20311;-84
2021/05/15 08:43:12;;;;;;;0.70;0.70;;;;;;;15.96;48.87;94970.06;4997697;28;20203;-86
2021/05/15 08:45:39;;;;;;;0.70;0.70;;;;;;;16.05;46.06;94965.31;4997434;28;20196;-83
2021/05/15 08:48:11;;;;;;;0.55;0.55;;;;;;;16.28;45.09;94959.34;4995891;28;20231;-84
2021/05/15 08:50:41;;;;;;;0.80;0.80;;;;;;;16.44;46.04;94959.44;4996614;28;20200;-86
2021/05/15 08:53:10;;;;;;;0.93;0.65;;;;;;;16.73;44.77;94956.94;4995348;28;20231;-82
2021/05/15 08:55:38;;;;;;;1.83;0.90;;;;;;;16.62;44.99;94952.53;4995001;28;20671;-82
2021/05/15 08:58:06;;;;;;;0.68;0.68;;;;;;;16.46;46.47;94954.03;4994419;28;20239;-86
2021/05/15 09:00:34;;;;;;;0.70;0.70;;;;;;;16.23;44.82;94950.41;4995942;28;20208;-84
2021/05/15 09:03:05;;;;;;;0.90;0.80;;;;;;;16.05;44.73;94947.94;4994870;28;20234;-86
2021/05/15 09:05:33;;;;;;;1.27;0.80;;;;;;;16.24;46.17;94949.41;4996590;28;20211;-86
2021/05/15 09:08:02;;;;;;;0.95;0.70;;;;;;;16.37;46.35;94950.97;4995526;28;20227;-84
2021/05/15 09:10:32;;;;;;;0.60;0.60;;;;;;;16.52;45.76;94950.50;4995663;28;20222;-84
2021/05/15 09:13:19;;;;;;;3.15;0.82;;;;;;;16.84;44.88;94949.09;4996158;28;20216;-85
2021/05/15 09:15:51;;;;;;;0.80;0.73;;;;;;;17.00;44.51;94944.19;4995703;28;20199;-86
2021/05/15 09:18:21;;;;;;;1.25;0.88;;;;;;;17.15;43.79;94947.06;4995852;28;20227;-86
2021/05/15 09:20:49;;;;;;;0.73;0.60;;;;;;;17.08;44.05;94941.22;4976194;28;20654;-86
2021/05/15 09:23:17;;;;;;;0.80;0.80;;;;;;;17.00;43.21;94941.59;4976530;28;20225;-85
2021/05/15 09:25:45;;;;;;;0.85;0.77;;;;;;;17.23;43.83;94939.69;4976377;28;20231;-86
2021/05/15 09:28:11;;;;;;;1.13;1.00;;;;;;;17.33;43.46;94941.66;4976146;28;20228;-86
2021/05/15 09:30:37;;;;;;;0.80;0.80;;;;;;;17.69;42.75;94931.91;4976742;28;20267;-86
2021/05/15 09:33:14;;;;;;;0.80;0.70;;;;;;;17.76;42.29;94930.69;4976451;28;20247;-83
2021/05/15 09:35:41;;;;;;;3.03;0.80;;;;;;;17.50;43.19;94929.50;4976632;28;20208;-85
2021/05/15 09:38:07;;;;;;;0.95;0.68;;;;;;;17.27;43.26;94927.81;4975935;28;20224;-86
2021/05/15 09:40:34;;;;;;;0.80;0.70;;;;;;;17.14;43.02;94924.69;4976610;28;20235;-87
2021/05/15 09:43:02;;;;;;;0.93;0.73;;;;;;;16.84;41.76;94923.09;4975843;28;20228;-84
2021/05/15 09:45:29;;;;;;;0.88;0.80;;;;;;;17.08;41.79;94921.22;4975721;28;20220;-85
2021/05/15 09:47:58;;;;;;;0.60;0.60;;;;;;;17.26;42.02;94913.22;4976256;28;20211;-85
2021/05/15 09:50:26;;;;;;;1.58;0.80;;;;;;;17.22;41.19;94914.69;4976320;28;20204;-86
2021/05/15 09:53:07;;;;;;;0.63;0.63;;;;;;;16.90;42.44;94909.19;4975011;28;20351;-85
2021/05/15 09:55:34;;;;;;;0.80;0.80;;;;;;;16.99;43.65;94911.41;4975509;28;20208;-83
2021/05/15 09:58:04;;;;;;;1.73;0.80;;;;;;;16.89;44.27;94904.22;4974984;28;20228;-86
2021/05/15 10:00:39;;;;;;;0.93;0.75;;;;;;;16.94;43.75;94912.09;4975905;28;20226;-84
2021/05/15 10:03:17;;;;;;;1.02;0.80;;;;;;;17.01;44.99;94906.75;4985284;28;20195;-86
2021/05/15 10:05:43;;;;;;;2.13;0.90;;;;;;;17.36;43.22;94907.38;4995419;28;20203;-83
2021/05/15 10:08:11;;;;;;;1.48;0.85;;;;;;;17.54;43.81;94901.94;4994545;28;20251;-85
2021/05/15 10:10:37;;;;;;;0.75;0.75;;;;;;;17.63;43.16;94898.97;4994891;28;20210;-83
2021/05/15 10:13:03;;;;;;;0.73;0.73;;;;;;;17.41;42.37;94894.44;4995285;28;20283;-87
2021/05/15 10:15:29;;;;;;;1.27;0.80;;;;;;;17.29;42.71;94887.75;4994239;28;20211;-84
2021/05/15 10:17:57;;;;;;;1.27;0.82;;;;;;;17.21;43.14;94887.09;4995447;28;20199;-85
2021/05/15 10:20:23;;;;;;;1.02;0.95;;;;;;;17.10;43.40;94876.75;4993474;28;20697;-85
2021/05/15 10:22:49;;;;;;;1.38;0.80;;;;;;;16.90;43.26;94880.59;4995371;28;20238;-85
2021/05/15 10:25:17;;;;;;;0.70;0.70;;;;;;;17.01;43.91;94871.13;4993923;28;20235;-87
2021/05/15 10:27:44;;;;;;;0.93;0.82;;;;;;;17.07;44.03;94875.41;4994822;28;20285;-86
2021/05/15 10:30:19;;;;;;;1.08;0.80;;;;;;;17.22;43.56;94870.47;4994301;28;20192;-85
2021/05/15 10:32:56;;;;;;;0.80;0.80;;;;;;;17.16;42.07;94868.00;4994136;28;20219;-86
2021/05/15 10:35:30;;;;;;;1.13;0.63;;;;;;;17.40;42.57;94860.84;4994966;28;20262;-86
2021/05/15 10:38:09;;;;;;;0.68;0.68;;;;;;;17.46;42.48;94855.50;4994735;28;20203;-85
2021/05/15 10:40:52;;;;;;;0.88;0.82;;;;;;;17.45;40.90;94850.53;4994693;28;20211;-86
2021/05/15 10:43:33;;;;;;;1.35;0.85;;;;;;;17.56;41.63;94840.03;4994091;28;20214;-85
2021/05/15 10:45:59;;;;;;;2.13;1.88;;;;;;;17.80;41.10;94834.66;4993040;28;20202;-84
2021/05/15 10:48:28;;;;;;;7.55;6.85;;;;;;;17.93;40.71;94834.31;4993836;28;20231;-85
2021/05/15 10:51:05;;;;;;;1.30;1.20;;;;;;;17.92;38.83;94820.50;4994094;28;20265;-86
2021/05/15 10:53:35;;;;;;;0.80;0.80;;;;;;;17.79;39.42;94813.06;4993244;28;20195;-85
2021/05/15 10:56:12;;;;;;;0.80;0.80;;;;;;;17.84;40.38;94814.94;4981215;28;20197;-86
2021/05/15 10:58:47;;;;;;;0.80;0.80;;;;;;;17.83;40.98;94815.97;4975130;28;20679;-86
2021/05/15 11:01:18;;;;;;;0.80;0.80;;;;;;;17.65;40.91;94811.81;4983872;28;20268;-83
2021/05/15 11:03:46;;;;;;;0.70;0.68;;;;;;;17.55;38.65;94812.41;4993658;28;20605;-83
2021/05/15 11:06:17;;;;;;;0.93;0.68;;;;;;;17.55;37.72;94804.59;4993025;28;20196;-85
2021/05/15 11:08:55;;;;;;;0.70;0.70;;;;;;;17.59;38.31;94803.13;4992340;28;20220;-86
2021/05/15 11:11:34;;;;;;;4.10;2.80;;;;;;;17.60;38.36;94802.09;4993111;28;20215;-84
2021/05/15 11:14:00;;;;;;;0.88;0.70;;;;;;;17.45;36.15;94798.47;4993308;28;20191;-85
2021/05/15 11:16:33;;;;;;;1.00;0.82;;;;;;;17.38;36.47;94787.44;4993488;28;20206;-84
2021/05/15 11:19:07;;;;;;;0.82;0.70;;;;;;;17.41;37.94;94794.78;4992834;28;20212;-85
2021/05/15 11:21:35;;;;;;;0.88;0.65;;;;;;;17.12;38.69;94787.06;4993232;28;20210;-85
2021/05/15 11:24:04;;;;;;;0.73;0.73;;;;;;;17.30;39.49;94785.25;4992572;28;20207;-84
2021/05/15 11:26:48;;;;;;;1.55;0.60;;;;;;;17.33;39.28;94785.53;4984164;28;20219;-84
2021/05/15 11:29:14;;;;;;;0.90;0.80;;;;;;;17.20;39.38;94781.47;4991749;28;20227;-85
2021/05/15 11:31:40;;;;;;;0.75;0.70;;;;;;;17.08;38.40;94779.97;4992457;28;20295;-87
2021/05/15 11:34:12;;;;;;;0.73;0.70;;;;;;;17.15;39.63;94776.16;4992864;28;20290;-87
2021/05/15 11:36:42;;;;;;;1.80;0.70;;;;;;;17.25;39.73;94776.34;4992780;28;20191;-84